New Taiton, Texas
Current Conditions -  °F | °C
As of 10:35 AM on Monday 26 Jan 2015 (Local Time) from KARM Reporting Station
Clear Clear  
Wind Chill: 58°   Ceiling: Unl
Heat Index: 58°   Visibility: 10mi
Dew Point: 36°   Wind: 6mph
Humidity: 44%   Direction: 340°NNW
Pressure: 30.29"   Gusts: NA
Location:  29.1916°N, 96.2212°W
Report Text: KARM 261635Z AUTO 34005KT 10SM CLR 14/02 A3029 RMK AO2 T01440024
Loading
Personal Weather Stations






























Interactive Weather Map New forecast layout! Learn more

10-Day Weather Forecast

Advertisements
Track Severe Weather on mobile